sensor_id;sensor_type;location;lat;lon;timestamp;P1;durP1;ratioP1;P2;durP2;ratioP2
20020;SDS011;10171;42.694;23.318;2023-07-31T00:00:48;3.35;;;3.05;;
20020;SDS011;10171;42.694;23.318;2023-07-31T00:03:13;4.10;;;3.65;;
20020;SDS011;10171;42.694;23.318;2023-07-31T00:05:39;6.03;;;3.78;;
20020;SDS011;10171;42.694;23.318;2023-07-31T00:08:04;3.70;;;3.30;;
20020;SDS011;10171;42.694;23.318;2023-07-31T00:10:29;4.07;;;3.05;;
20020;SDS011;10171;42.694;23.318;2023-07-31T00:12:54;3.40;;;3.10;;
20020;SDS011;10171;42.694;23.318;2023-07-31T00:15:20;3.90;;;3.42;;
20020;SDS011;10171;42.694;23.318;2023-07-31T00:17:45;3.90;;;3.50;;
20020;SDS011;10171;42.694;23.318;2023-07-31T00:20:10;5.03;;;3.70;;
20020;SDS011;10171;42.694;23.318;2023-07-31T00:22:36;4.13;;;3.28;;
20020;SDS011;10171;42.694;23.318;2023-07-31T00:25:01;6.05;;;3.72;;
20020;SDS011;10171;42.694;23.318;2023-07-31T00:27:26;4.68;;;4.03;;
20020;SDS011;10171;42.694;23.318;2023-07-31T00:29:52;3.92;;;3.63;;
20020;SDS011;10171;42.694;23.318;2023-07-31T00:32:17;4.95;;;3.92;;
20020;SDS011;10171;42.694;23.318;2023-07-31T00:34:42;5.28;;;4.53;;
20020;SDS011;10171;42.694;23.318;2023-07-31T00:37:08;6.28;;;4.15;;
20020;SDS011;10171;42.694;23.318;2023-07-31T00:39:33;5.78;;;4.20;;
20020;SDS011;10171;42.694;23.318;2023-07-31T00:41:59;6.13;;;5.03;;
20020;SDS011;10171;42.694;23.318;2023-07-31T00:44:24;4.22;;;3.83;;
20020;SDS011;10171;42.694;23.318;2023-07-31T00:46:49;4.75;;;4.35;;
20020;SDS011;10171;42.694;23.318;2023-07-31T00:49:15;5.70;;;4.57;;
20020;SDS011;10171;42.694;23.318;2023-07-31T00:51:40;7.15;;;5.70;;
20020;SDS011;10171;42.694;23.318;2023-07-31T00:54:06;7.72;;;6.18;;
20020;SDS011;10171;42.694;23.318;2023-07-31T00:56:31;7.13;;;5.80;;
20020;SDS011;10171;42.694;23.318;2023-07-31T00:58:57;7.85;;;6.63;;
20020;SDS011;10171;42.694;23.318;2023-07-31T01:01:22;8.23;;;7.32;;
20020;SDS011;10171;42.694;23.318;2023-07-31T01:03:48;9.98;;;8.02;;
20020;SDS011;10171;42.694;23.318;2023-07-31T01:09:11;11.30;;;7.78;;
20020;SDS011;10171;42.694;23.318;2023-07-31T01:11:38;12.73;;;8.30;;
20020;SDS011;10171;42.694;23.318;2023-07-31T01:14:08;11.60;;;9.43;;
20020;SDS011;10171;42.694;23.318;2023-07-31T01:16:33;11.70;;;9.10;;
20020;SDS011;10171;42.694;23.318;2023-07-31T01:18:58;12.20;;;9.85;;
20020;SDS011;10171;42.694;23.318;2023-07-31T01:21:35;12.63;;;10.40;;
20020;SDS011;10171;42.694;23.318;2023-07-31T01:26:33;15.23;;;10.65;;
20020;SDS011;10171;42.694;23.318;2023-07-31T01:31:33;13.25;;;11.27;;
20020;SDS011;10171;42.694;23.318;2023-07-31T01:34:00;16.33;;;11.55;;
20020;SDS011;10171;42.694;23.318;2023-07-31T01:36:26;16.30;;;13.27;;
20020;SDS011;10171;42.694;23.318;2023-07-31T01:38:51;17.27;;;13.18;;
20020;SDS011;10171;42.694;23.318;2023-07-31T01:41:17;19.27;;;14.38;;
20020;SDS011;10171;42.694;23.318;2023-07-31T01:43:43;24.15;;;17.75;;
20020;SDS011;10171;42.694;23.318;2023-07-31T01:46:08;22.33;;;16.70;;
20020;SDS011;10171;42.694;23.318;2023-07-31T01:48:33;23.95;;;18.58;;
20020;SDS011;10171;42.694;23.318;2023-07-31T01:51:01;27.92;;;17.45;;
20020;SDS011;10171;42.694;23.318;2023-07-31T01:53:27;27.02;;;18.83;;
20020;SDS011;10171;42.694;23.318;2023-07-31T01:55:52;27.98;;;19.63;;
20020;SDS011;10171;42.694;23.318;2023-07-31T01:58:17;24.52;;;19.05;;
20020;SDS011;10171;42.694;23.318;2023-07-31T02:00:43;27.08;;;18.17;;
20020;SDS011;10171;42.694;23.318;2023-07-31T02:03:08;25.83;;;18.25;;
20020;SDS011;10171;42.694;23.318;2023-07-31T02:05:33;24.13;;;17.83;;
20020;SDS011;10171;42.694;23.318;2023-07-31T02:07:59;26.58;;;18.75;;
20020;SDS011;10171;42.694;23.318;2023-07-31T02:10:24;24.35;;;18.13;;
20020;SDS011;10171;42.694;23.318;2023-07-31T02:12:49;22.98;;;16.92;;
20020;SDS011;10171;42.694;23.318;2023-07-31T02:15:14;23.23;;;17.75;;
20020;SDS011;10171;42.694;23.318;2023-07-31T02:17:40;23.40;;;16.52;;
20020;SDS011;10171;42.694;23.318;2023-07-31T02:20:05;21.02;;;15.90;;
20020;SDS011;10171;42.694;23.318;2023-07-31T02:22:30;24.10;;;16.35;;
20020;SDS011;10171;42.694;23.318;2023-07-31T02:24:56;24.73;;;18.02;;
20020;SDS011;10171;42.694;23.318;2023-07-31T02:27:21;22.00;;;16.90;;
20020;SDS011;10171;42.694;23.318;2023-07-31T02:29:49;25.38;;;17.60;;
20020;SDS011;10171;42.694;23.318;2023-07-31T02:32:14;24.08;;;17.40;;
20020;SDS011;10171;42.694;23.318;2023-07-31T02:34:39;24.83;;;18.63;;
20020;SDS011;10171;42.694;23.318;2023-07-31T02:37:05;26.55;;;18.50;;
20020;SDS011;10171;42.694;23.318;2023-07-31T02:39:30;24.67;;;18.40;;
20020;SDS011;10171;42.694;23.318;2023-07-31T02:41:55;24.15;;;17.25;;
20020;SDS011;10171;42.694;23.318;2023-07-31T02:44:21;26.55;;;18.13;;
20020;SDS011;10171;42.694;23.318;2023-07-31T02:46:46;25.42;;;19.08;;
20020;SDS011;10171;42.694;23.318;2023-07-31T02:49:11;25.75;;;18.67;;
20020;SDS011;10171;42.694;23.318;2023-07-31T02:51:36;25.02;;;18.40;;
20020;SDS011;10171;42.694;23.318;2023-07-31T02:54:02;28.40;;;18.77;;
20020;SDS011;10171;42.694;23.318;2023-07-31T02:56:27;24.27;;;18.05;;
20020;SDS011;10171;42.694;23.318;2023-07-31T02:58:52;23.75;;;17.23;;
20020;SDS011;10171;42.694;23.318;2023-07-31T03:01:17;26.88;;;19.00;;
20020;SDS011;10171;42.694;23.318;2023-07-31T03:03:43;24.42;;;18.05;;
20020;SDS011;10171;42.694;23.318;2023-07-31T03:06:08;26.50;;;19.73;;
20020;SDS011;10171;42.694;23.318;2023-07-31T03:08:33;27.15;;;19.60;;
20020;SDS011;10171;42.694;23.318;2023-07-31T03:10:58;25.55;;;17.80;;
20020;SDS011;10171;42.694;23.318;2023-07-31T03:13:24;26.58;;;18.92;;
20020;SDS011;10171;42.694;23.318;2023-07-31T03:15:49;26.38;;;19.55;;
20020;SDS011;10171;42.694;23.318;2023-07-31T03:18:15;26.33;;;19.08;;
20020;SDS011;10171;42.694;23.318;2023-07-31T03:20:43;28.10;;;19.52;;
20020;SDS011;10171;42.694;23.318;2023-07-31T03:23:11;26.52;;;19.15;;
20020;SDS011;10171;42.694;23.318;2023-07-31T03:25:37;24.60;;;18.13;;
20020;SDS011;10171;42.694;23.318;2023-07-31T03:28:02;25.58;;;18.60;;
20020;SDS011;10171;42.694;23.318;2023-07-31T03:30:27;26.65;;;18.80;;
20020;SDS011;10171;42.694;23.318;2023-07-31T03:32:52;26.35;;;18.67;;
20020;SDS011;10171;42.694;23.318;2023-07-31T03:35:18;26.00;;;18.65;;
20020;SDS011;10171;42.694;23.318;2023-07-31T03:37:43;25.10;;;18.73;;
20020;SDS011;10171;42.694;23.318;2023-07-31T03:40:09;28.33;;;19.83;;
20020;SDS011;10171;42.694;23.318;2023-07-31T03:42:34;27.92;;;19.05;;
20020;SDS011;10171;42.694;23.318;2023-07-31T03:44:59;30.10;;;19.38;;
20020;SDS011;10171;42.694;23.318;2023-07-31T03:47:25;27.95;;;19.45;;
20020;SDS011;10171;42.694;23.318;2023-07-31T03:49:50;26.92;;;19.38;;
20020;SDS011;10171;42.694;23.318;2023-07-31T03:52:15;27.10;;;20.02;;
20020;SDS011;10171;42.694;23.318;2023-07-31T03:54:41;25.95;;;17.77;;
20020;SDS011;10171;42.694;23.318;2023-07-31T03:57:06;30.25;;;19.75;;
20020;SDS011;10171;42.694;23.318;2023-07-31T03:59:31;31.50;;;20.05;;
20020;SDS011;10171;42.694;23.318;2023-07-31T04:02:00;30.13;;;19.67;;
20020;SDS011;10171;42.694;23.318;2023-07-31T04:04:25;29.83;;;19.27;;
20020;SDS011;10171;42.694;23.318;2023-07-31T04:06:50;29.65;;;19.20;;
20020;SDS011;10171;42.694;23.318;2023-07-31T04:09:16;31.25;;;21.30;;
20020;SDS011;10171;42.694;23.318;2023-07-31T04:11:41;33.92;;;21.77;;
20020;SDS011;10171;42.694;23.318;2023-07-31T04:14:06;33.20;;;21.40;;
20020;SDS011;10171;42.694;23.318;2023-07-31T04:16:32;32.53;;;21.45;;
20020;SDS011;10171;42.694;23.318;2023-07-31T04:18:57;29.02;;;19.58;;
20020;SDS011;10171;42.694;23.318;2023-07-31T04:21:23;30.85;;;20.88;;
20020;SDS011;10171;42.694;23.318;2023-07-31T04:23:48;31.10;;;21.40;;
20020;SDS011;10171;42.694;23.318;2023-07-31T04:26:13;30.50;;;20.45;;
20020;SDS011;10171;42.694;23.318;2023-07-31T04:28:38;30.80;;;20.27;;
20020;SDS011;10171;42.694;23.318;2023-07-31T04:31:04;28.95;;;20.10;;
20020;SDS011;10171;42.694;23.318;2023-07-31T04:33:29;31.15;;;19.45;;
20020;SDS011;10171;42.694;23.318;2023-07-31T04:35:54;32.78;;;21.20;;
20020;SDS011;10171;42.694;23.318;2023-07-31T04:38:20;28.65;;;19.20;;
20020;SDS011;10171;42.694;23.318;2023-07-31T04:40:46;29.73;;;20.00;;
20020;SDS011;10171;42.694;23.318;2023-07-31T04:43:12;32.33;;;21.35;;
20020;SDS011;10171;42.694;23.318;2023-07-31T04:45:37;30.40;;;19.45;;
20020;SDS011;10171;42.694;23.318;2023-07-31T04:48:03;27.50;;;19.30;;
20020;SDS011;10171;42.694;23.318;2023-07-31T04:50:28;29.63;;;19.48;;
20020;SDS011;10171;42.694;23.318;2023-07-31T04:52:55;29.40;;;19.48;;
20020;SDS011;10171;42.694;23.318;2023-07-31T04:55:21;30.85;;;18.95;;
20020;SDS011;10171;42.694;23.318;2023-07-31T04:57:46;29.13;;;19.45;;
20020;SDS011;10171;42.694;23.318;2023-07-31T05:00:12;24.92;;;16.50;;
20020;SDS011;10171;42.694;23.318;2023-07-31T05:02:37;27.48;;;18.15;;
20020;SDS011;10171;42.694;23.318;2023-07-31T05:05:03;28.00;;;18.70;;
20020;SDS011;10171;42.694;23.318;2023-07-31T05:07:28;26.48;;;18.65;;
20020;SDS011;10171;42.694;23.318;2023-07-31T05:09:54;28.40;;;19.42;;
20020;SDS011;10171;42.694;23.318;2023-07-31T05:12:19;25.17;;;18.05;;
20020;SDS011;10171;42.694;23.318;2023-07-31T05:14:45;24.15;;;17.25;;
20020;SDS011;10171;42.694;23.318;2023-07-31T05:17:10;24.60;;;18.35;;
20020;SDS011;10171;42.694;23.318;2023-07-31T05:19:35;23.27;;;17.25;;
20020;SDS011;10171;42.694;23.318;2023-07-31T05:22:01;25.60;;;16.77;;
20020;SDS011;10171;42.694;23.318;2023-07-31T05:24:26;21.85;;;16.17;;
20020;SDS011;10171;42.694;23.318;2023-07-31T05:26:52;22.23;;;16.38;;
20020;SDS011;10171;42.694;23.318;2023-07-31T05:29:17;24.27;;;16.60;;
20020;SDS011;10171;42.694;23.318;2023-07-31T05:31:43;21.55;;;15.68;;
20020;SDS011;10171;42.694;23.318;2023-07-31T05:34:08;19.80;;;14.40;;
20020;SDS011;10171;42.694;23.318;2023-07-31T05:36:33;18.38;;;14.38;;
20020;SDS011;10171;42.694;23.318;2023-07-31T05:38:59;20.45;;;14.10;;
20020;SDS011;10171;42.694;23.318;2023-07-31T05:41:24;18.05;;;14.75;;
20020;SDS011;10171;42.694;23.318;2023-07-31T05:43:50;18.67;;;13.10;;
20020;SDS011;10171;42.694;23.318;2023-07-31T05:46:16;16.73;;;12.43;;
20020;SDS011;10171;42.694;23.318;2023-07-31T05:48:42;14.35;;;11.60;;
20020;SDS011;10171;42.694;23.318;2023-07-31T05:51:08;16.30;;;11.38;;
20020;SDS011;10171;42.694;23.318;2023-07-31T05:53:34;16.63;;;11.55;;
20020;SDS011;10171;42.694;23.318;2023-07-31T05:56:01;12.98;;;9.65;;
20020;SDS011;10171;42.694;23.318;2023-07-31T05:58:26;11.65;;;9.27;;
20020;SDS011;10171;42.694;23.318;2023-07-31T06:00:51;10.13;;;8.45;;
20020;SDS011;10171;42.694;23.318;2023-07-31T06:03:17;11.48;;;9.32;;
20020;SDS011;10171;42.694;23.318;2023-07-31T06:05:42;13.85;;;10.05;;
20020;SDS011;10171;42.694;23.318;2023-07-31T06:08:08;13.48;;;9.15;;
20020;SDS011;10171;42.694;23.318;2023-07-31T06:10:33;11.57;;;9.07;;
20020;SDS011;10171;42.694;23.318;2023-07-31T06:12:59;11.63;;;9.00;;
20020;SDS011;10171;42.694;23.318;2023-07-31T06:15:25;11.85;;;7.60;;
20020;SDS011;10171;42.694;23.318;2023-07-31T06:17:50;8.70;;;6.57;;
20020;SDS011;10171;42.694;23.318;2023-07-31T06:20:16;9.50;;;7.18;;
20020;SDS011;10171;42.694;23.318;2023-07-31T06:22:41;8.95;;;7.47;;
20020;SDS011;10171;42.694;23.318;2023-07-31T06:25:07;11.43;;;7.05;;
20020;SDS011;10171;42.694;23.318;2023-07-31T06:27:32;6.63;;;5.93;;
20020;SDS011;10171;42.694;23.318;2023-07-31T06:29:58;6.32;;;5.63;;
20020;SDS011;10171;42.694;23.318;2023-07-31T06:32:23;8.30;;;6.28;;
20020;SDS011;10171;42.694;23.318;2023-07-31T06:34:49;9.52;;;6.90;;
20020;SDS011;10171;42.694;23.318;2023-07-31T06:37:14;6.97;;;6.07;;
20020;SDS011;10171;42.694;23.318;2023-07-31T06:39:40;9.40;;;5.75;;
20020;SDS011;10171;42.694;23.318;2023-07-31T06:42:05;7.60;;;6.13;;
20020;SDS011;10171;42.694;23.318;2023-07-31T06:44:31;10.00;;;6.18;;
20020;SDS011;10171;42.694;23.318;2023-07-31T06:46:56;7.82;;;6.28;;
20020;SDS011;10171;42.694;23.318;2023-07-31T06:49:22;7.03;;;5.85;;
20020;SDS011;10171;42.694;23.318;2023-07-31T06:51:47;7.22;;;5.95;;
20020;SDS011;10171;42.694;23.318;2023-07-31T06:54:13;8.15;;;5.25;;
20020;SDS011;10171;42.694;23.318;2023-07-31T06:56:38;6.38;;;4.43;;
20020;SDS011;10171;42.694;23.318;2023-07-31T06:59:05;7.07;;;5.07;;
20020;SDS011;10171;42.694;23.318;2023-07-31T07:01:30;6.85;;;5.47;;
20020;SDS011;10171;42.694;23.318;2023-07-31T07:03:56;6.90;;;5.10;;
20020;SDS011;10171;42.694;23.318;2023-07-31T07:06:21;5.47;;;4.80;;
20020;SDS011;10171;42.694;23.318;2023-07-31T07:08:47;7.38;;;5.18;;
20020;SDS011;10171;42.694;23.318;2023-07-31T07:11:13;6.30;;;4.65;;
20020;SDS011;10171;42.694;23.318;2023-07-31T07:13:39;5.35;;;4.70;;
20020;SDS011;10171;42.694;23.318;2023-07-31T07:16:04;6.35;;;4.32;;
20020;SDS011;10171;42.694;23.318;2023-07-31T07:18:29;7.15;;;4.68;;
20020;SDS011;10171;42.694;23.318;2023-07-31T07:20:55;5.80;;;4.43;;
20020;SDS011;10171;42.694;23.318;2023-07-31T07:23:22;7.88;;;4.45;;
20020;SDS011;10171;42.694;23.318;2023-07-31T07:25:47;6.32;;;4.38;;
20020;SDS011;10171;42.694;23.318;2023-07-31T07:28:13;4.97;;;4.05;;
20020;SDS011;10171;42.694;23.318;2023-07-31T07:30:39;5.22;;;4.55;;
20020;SDS011;10171;42.694;23.318;2023-07-31T07:33:04;7.03;;;4.93;;
20020;SDS011;10171;42.694;23.318;2023-07-31T07:35:33;6.22;;;4.38;;
20020;SDS011;10171;42.694;23.318;2023-07-31T07:37:59;6.45;;;4.50;;
20020;SDS011;10171;42.694;23.318;2023-07-31T07:40:25;5.55;;;3.95;;
20020;SDS011;10171;42.694;23.318;2023-07-31T07:42:51;4.28;;;3.72;;
20020;SDS011;10171;42.694;23.318;2023-07-31T07:45:16;6.10;;;4.38;;
20020;SDS011;10171;42.694;23.318;2023-07-31T07:47:41;6.47;;;4.15;;
20020;SDS011;10171;42.694;23.318;2023-07-31T07:50:07;6.57;;;3.83;;
20020;SDS011;10171;42.694;23.318;2023-07-31T07:52:33;5.03;;;3.50;;
20020;SDS011;10171;42.694;23.318;2023-07-31T07:54:59;4.25;;;3.45;;
20020;SDS011;10171;42.694;23.318;2023-07-31T07:57:25;6.00;;;3.28;;
20020;SDS011;10171;42.694;23.318;2023-07-31T07:59:51;7.78;;;3.85;;
20020;SDS011;10171;42.694;23.318;2023-07-31T08:02:16;3.97;;;3.38;;
20020;SDS011;10171;42.694;23.318;2023-07-31T08:04:42;7.82;;;3.72;;
20020;SDS011;10171;42.694;23.318;2023-07-31T08:07:07;6.03;;;4.93;;
20020;SDS011;10171;42.694;23.318;2023-07-31T08:09:33;5.78;;;4.00;;
20020;SDS011;10171;42.694;23.318;2023-07-31T08:11:58;4.05;;;3.53;;
20020;SDS011;10171;42.694;23.318;2023-07-31T08:14:27;5.15;;;3.70;;
20020;SDS011;10171;42.694;23.318;2023-07-31T08:16:52;6.80;;;4.63;;
20020;SDS011;10171;42.694;23.318;2023-07-31T08:19:18;5.57;;;3.72;;
20020;SDS011;10171;42.694;23.318;2023-07-31T08:21:43;7.28;;;3.90;;
20020;SDS011;10171;42.694;23.318;2023-07-31T08:24:09;7.00;;;4.22;;
20020;SDS011;10171;42.694;23.318;2023-07-31T08:26:35;4.72;;;3.92;;
20020;SDS011;10171;42.694;23.318;2023-07-31T08:29:00;3.88;;;3.25;;
20020;SDS011;10171;42.694;23.318;2023-07-31T08:31:26;4.93;;;3.95;;
20020;SDS011;10171;42.694;23.318;2023-07-31T08:33:52;7.32;;;4.07;;
20020;SDS011;10171;42.694;23.318;2023-07-31T08:36:17;13.32;;;5.15;;
20020;SDS011;10171;42.694;23.318;2023-07-31T08:38:43;3.80;;;3.40;;
20020;SDS011;10171;42.694;23.318;2023-07-31T08:41:08;5.70;;;4.20;;
20020;SDS011;10171;42.694;23.318;2023-07-31T08:43:34;5.95;;;4.05;;
20020;SDS011;10171;42.694;23.318;2023-07-31T08:46:02;11.15;;;4.38;;
20020;SDS011;10171;42.694;23.318;2023-07-31T08:48:28;8.52;;;3.97;;
20020;SDS011;10171;42.694;23.318;2023-07-31T08:50:54;4.82;;;3.55;;
20020;SDS011;10171;42.694;23.318;2023-07-31T08:53:20;4.30;;;3.25;;
20020;SDS011;10171;42.694;23.318;2023-07-31T08:55:46;4.88;;;4.18;;
20020;SDS011;10171;42.694;23.318;2023-07-31T08:58:12;3.97;;;3.28;;
20020;SDS011;10171;42.694;23.318;2023-07-31T09:00:39;6.68;;;4.05;;
20020;SDS011;10171;42.694;23.318;2023-07-31T09:03:09;5.53;;;3.28;;
20020;SDS011;10171;42.694;23.318;2023-07-31T09:05:39;5.18;;;3.25;;
20020;SDS011;10171;42.694;23.318;2023-07-31T09:08:08;3.70;;;3.03;;
20020;SDS011;10171;42.694;23.318;2023-07-31T09:10:35;5.80;;;3.72;;
20020;SDS011;10171;42.694;23.318;2023-07-31T09:13:00;4.93;;;3.22;;
20020;SDS011;10171;42.694;23.318;2023-07-31T09:15:27;5.57;;;3.47;;
20020;SDS011;10171;42.694;23.318;2023-07-31T09:18:00;4.32;;;3.50;;
20020;SDS011;10171;42.694;23.318;2023-07-31T09:20:27;3.78;;;3.38;;
20020;SDS011;10171;42.694;23.318;2023-07-31T09:22:52;5.63;;;3.17;;
20020;SDS011;10171;42.694;23.318;2023-07-31T09:25:24;4.65;;;3.78;;
20020;SDS011;10171;42.694;23.318;2023-07-31T09:27:58;4.65;;;3.60;;
20020;SDS011;10171;42.694;23.318;2023-07-31T09:30:27;6.00;;;3.42;;
20020;SDS011;10171;42.694;23.318;2023-07-31T09:33:03;4.90;;;3.60;;
20020;SDS011;10171;42.694;23.318;2023-07-31T09:35:34;3.40;;;2.90;;
20020;SDS011;10171;42.694;23.318;2023-07-31T09:38:10;4.68;;;3.03;;
20020;SDS011;10171;42.694;23.318;2023-07-31T09:40:38;4.25;;;3.67;;
20020;SDS011;10171;42.694;23.318;2023-07-31T09:43:05;4.50;;;3.65;;
20020;SDS011;10171;42.694;23.318;2023-07-31T09:45:36;3.55;;;3.10;;
20020;SDS011;10171;42.694;23.318;2023-07-31T09:48:09;5.13;;;3.13;;
20020;SDS011;10171;42.694;23.318;2023-07-31T09:50:37;4.07;;;3.03;;
20020;SDS011;10171;42.694;23.318;2023-07-31T09:53:03;3.08;;;2.78;;
20020;SDS011;10171;42.694;23.318;2023-07-31T09:55:29;4.50;;;2.90;;
20020;SDS011;10171;42.694;23.318;2023-07-31T09:57:56;4.10;;;2.92;;
20020;SDS011;10171;42.694;23.318;2023-07-31T10:00:22;4.35;;;2.90;;
20020;SDS011;10171;42.694;23.318;2023-07-31T10:02:50;3.00;;;2.72;;
20020;SDS011;10171;42.694;23.318;2023-07-31T10:05:17;3.70;;;3.00;;
20020;SDS011;10171;42.694;23.318;2023-07-31T10:07:54;2.88;;;2.38;;
20020;SDS011;10171;42.694;23.318;2023-07-31T10:10:23;3.42;;;2.30;;
20020;SDS011;10171;42.694;23.318;2023-07-31T10:12:51;2.53;;;2.33;;
20020;SDS011;10171;42.694;23.318;2023-07-31T10:15:17;3.10;;;2.67;;
20020;SDS011;10171;42.694;23.318;2023-07-31T10:17:43;3.83;;;2.53;;
20020;SDS011;10171;42.694;23.318;2023-07-31T10:20:09;3.20;;;2.00;;
20020;SDS011;10171;42.694;23.318;2023-07-31T10:22:35;4.00;;;2.35;;
20020;SDS011;10171;42.694;23.318;2023-07-31T10:25:01;2.75;;;2.50;;
20020;SDS011;10171;42.694;23.318;2023-07-31T10:27:27;2.85;;;2.65;;
20020;SDS011;10171;42.694;23.318;2023-07-31T10:29:54;2.92;;;2.50;;
20020;SDS011;10171;42.694;23.318;2023-07-31T10:32:21;3.22;;;2.35;;
20020;SDS011;10171;42.694;23.318;2023-07-31T10:34:49;2.92;;;2.20;;
20020;SDS011;10171;42.694;23.318;2023-07-31T10:37:23;4.32;;;2.70;;
20020;SDS011;10171;42.694;23.318;2023-07-31T10:39:55;3.10;;;2.13;;
20020;SDS011;10171;42.694;23.318;2023-07-31T10:42:38;3.72;;;2.22;;
20020;SDS011;10171;42.694;23.318;2023-07-31T10:45:12;2.58;;;2.00;;
20020;SDS011;10171;42.694;23.318;2023-07-31T10:47:39;3.38;;;2.20;;
20020;SDS011;10171;42.694;23.318;2023-07-31T10:50:20;2.50;;;2.10;;
20020;SDS011;10171;42.694;23.318;2023-07-31T10:52:52;2.95;;;2.25;;
20020;SDS011;10171;42.694;23.318;2023-07-31T10:55:26;2.97;;;2.35;;
20020;SDS011;10171;42.694;23.318;2023-07-31T11:00:32;3.30;;;2.58;;
20020;SDS011;10171;42.694;23.318;2023-07-31T11:03:18;4.05;;;2.53;;
20020;SDS011;10171;42.694;23.318;2023-07-31T11:05:47;2.40;;;2.20;;
20020;SDS011;10171;42.694;23.318;2023-07-31T11:09:02;2.38;;;2.17;;
20020;SDS011;10171;42.694;23.318;2023-07-31T11:11:20;2.38;;;2.17;;
20020;SDS011;10171;42.694;23.318;2023-07-31T11:13:47;2.83;;;1.90;;
20020;SDS011;10171;42.694;23.318;2023-07-31T11:16:20;5.15;;;2.58;;
20020;SDS011;10171;42.694;23.318;2023-07-31T11:18:47;4.10;;;2.13;;
20020;SDS011;10171;42.694;23.318;2023-07-31T11:23:40;4.32;;;2.38;;
20020;SDS011;10171;42.694;23.318;2023-07-31T11:26:06;17.67;;;6.22;;
20020;SDS011;10171;42.694;23.318;2023-07-31T11:28:33;4.78;;;2.40;;
20020;SDS011;10171;42.694;23.318;2023-07-31T11:30:59;4.22;;;1.98;;
20020;SDS011;10171;42.694;23.318;2023-07-31T11:33:25;3.63;;;2.13;;
20020;SDS011;10171;42.694;23.318;2023-07-31T11:35:51;4.28;;;2.70;;
20020;SDS011;10171;42.694;23.318;2023-07-31T11:38:26;2.53;;;2.33;;
20020;SDS011;10171;42.694;23.318;2023-07-31T11:40:55;4.80;;;2.70;;
20020;SDS011;10171;42.694;23.318;2023-07-31T11:43:22;4.30;;;3.35;;
20020;SDS011;10171;42.694;23.318;2023-07-31T11:45:53;4.55;;;3.00;;
20020;SDS011;10171;42.694;23.318;2023-07-31T11:48:24;3.47;;;2.80;;
20020;SDS011;10171;42.694;23.318;2023-07-31T11:51:02;5.38;;;3.40;;
20020;SDS011;10171;42.694;23.318;2023-07-31T11:56:03;4.63;;;3.28;;
20020;SDS011;10171;42.694;23.318;2023-07-31T11:58:31;3.33;;;2.97;;
20020;SDS011;10171;42.694;23.318;2023-07-31T12:00:59;4.28;;;3.03;;
20020;SDS011;10171;42.694;23.318;2023-07-31T12:03:25;5.25;;;3.67;;
20020;SDS011;10171;42.694;23.318;2023-07-31T12:05:52;4.13;;;3.15;;
20020;SDS011;10171;42.694;23.318;2023-07-31T12:08:20;3.47;;;3.15;;
20020;SDS011;10171;42.694;23.318;2023-07-31T12:10:46;4.53;;;3.60;;
20020;SDS011;10171;42.694;23.318;2023-07-31T12:13:25;4.35;;;3.78;;
20020;SDS011;10171;42.694;23.318;2023-07-31T12:15:58;7.25;;;4.93;;
20020;SDS011;10171;42.694;23.318;2023-07-31T12:18:26;4.93;;;4.40;;
20020;SDS011;10171;42.694;23.318;2023-07-31T12:23:28;5.03;;;4.50;;
20020;SDS011;10171;42.694;23.318;2023-07-31T12:28:30;6.32;;;5.15;;
20020;SDS011;10171;42.694;23.318;2023-07-31T12:30:59;6.78;;;5.53;;
20020;SDS011;10171;42.694;23.318;2023-07-31T12:33:30;5.20;;;4.70;;
20020;SDS011;10171;42.694;23.318;2023-07-31T12:36:00;4.82;;;4.30;;
20020;SDS011;10171;42.694;23.318;2023-07-31T12:38:28;5.13;;;4.32;;
20020;SDS011;10171;42.694;23.318;2023-07-31T12:40:53;6.63;;;4.50;;
20020;SDS011;10171;42.694;23.318;2023-07-31T12:43:19;5.72;;;4.65;;
20020;SDS011;10171;42.694;23.318;2023-07-31T12:45:44;6.40;;;5.22;;
20020;SDS011;10171;42.694;23.318;2023-07-31T12:48:10;5.90;;;4.90;;
20020;SDS011;10171;42.694;23.318;2023-07-31T12:50:35;5.45;;;4.85;;
20020;SDS011;10171;42.694;23.318;2023-07-31T12:53:01;6.10;;;5.50;;
20020;SDS011;10171;42.694;23.318;2023-07-31T12:55:30;6.82;;;6.00;;
20020;SDS011;10171;42.694;23.318;2023-07-31T12:57:56;6.20;;;5.32;;
20020;SDS011;10171;42.694;23.318;2023-07-31T13:00:22;7.00;;;5.53;;
20020;SDS011;10171;42.694;23.318;2023-07-31T13:02:48;5.95;;;5.35;;
20020;SDS011;10171;42.694;23.318;2023-07-31T13:05:14;6.47;;;5.70;;
20020;SDS011;10171;42.694;23.318;2023-07-31T13:07:39;6.90;;;6.20;;
20020;SDS011;10171;42.694;23.318;2023-07-31T13:10:05;6.40;;;5.78;;
20020;SDS011;10171;42.694;23.318;2023-07-31T13:12:31;7.05;;;5.95;;
20020;SDS011;10171;42.694;23.318;2023-07-31T13:14:57;6.25;;;5.35;;
20020;SDS011;10171;42.694;23.318;2023-07-31T13:17:22;7.43;;;5.53;;
20020;SDS011;10171;42.694;23.318;2023-07-31T13:19:48;6.60;;;6.00;;
20020;SDS011;10171;42.694;23.318;2023-07-31T13:22:13;6.90;;;5.40;;
20020;SDS011;10171;42.694;23.318;2023-07-31T13:24:39;7.22;;;5.40;;
20020;SDS011;10171;42.694;23.318;2023-07-31T13:27:04;6.30;;;5.15;;
20020;SDS011;10171;42.694;23.318;2023-07-31T13:29:30;6.35;;;4.82;;
20020;SDS011;10171;42.694;23.318;2023-07-31T13:31:55;6.78;;;4.60;;
20020;SDS011;10171;42.694;23.318;2023-07-31T13:34:21;4.97;;;4.47;;
20020;SDS011;10171;42.694;23.318;2023-07-31T13:36:46;4.85;;;4.45;;
20020;SDS011;10171;42.694;23.318;2023-07-31T13:39:12;5.55;;;4.85;;
20020;SDS011;10171;42.694;23.318;2023-07-31T13:41:37;5.18;;;4.47;;
20020;SDS011;10171;42.694;23.318;2023-07-31T13:44:03;6.15;;;4.68;;
20020;SDS011;10171;42.694;23.318;2023-07-31T13:46:28;4.70;;;4.30;;
20020;SDS011;10171;42.694;23.318;2023-07-31T13:48:54;5.47;;;4.15;;
20020;SDS011;10171;42.694;23.318;2023-07-31T13:51:21;4.72;;;4.30;;
20020;SDS011;10171;42.694;23.318;2023-07-31T13:53:46;5.80;;;4.20;;
20020;SDS011;10171;42.694;23.318;2023-07-31T13:56:12;4.68;;;4.18;;
20020;SDS011;10171;42.694;23.318;2023-07-31T13:58:38;6.55;;;4.82;;
20020;SDS011;10171;42.694;23.318;2023-07-31T14:01:03;4.63;;;4.22;;
20020;SDS011;10171;42.694;23.318;2023-07-31T14:03:29;5.03;;;4.30;;
20020;SDS011;10171;42.694;23.318;2023-07-31T14:05:55;4.40;;;4.00;;
20020;SDS011;10171;42.694;23.318;2023-07-31T14:08:20;6.07;;;4.30;;
20020;SDS011;10171;42.694;23.318;2023-07-31T14:10:46;4.70;;;4.25;;
20020;SDS011;10171;42.694;23.318;2023-07-31T14:13:12;5.35;;;4.85;;
20020;SDS011;10171;42.694;23.318;2023-07-31T14:15:39;5.85;;;4.85;;
20020;SDS011;10171;42.694;23.318;2023-07-31T14:18:07;6.10;;;4.65;;
20020;SDS011;10171;42.694;23.318;2023-07-31T14:20:32;5.22;;;4.25;;
20020;SDS011;10171;42.694;23.318;2023-07-31T14:22:58;5.95;;;4.55;;
20020;SDS011;10171;42.694;23.318;2023-07-31T14:25:24;5.35;;;4.85;;
20020;SDS011;10171;42.694;23.318;2023-07-31T14:27:49;5.93;;;3.65;;
20020;SDS011;10171;42.694;23.318;2023-07-31T14:30:15;4.65;;;4.20;;
20020;SDS011;10171;42.694;23.318;2023-07-31T14:32:41;4.80;;;4.40;;
20020;SDS011;10171;42.694;23.318;2023-07-31T14:35:06;5.43;;;4.50;;
20020;SDS011;10171;42.694;23.318;2023-07-31T14:37:39;8.52;;;4.65;;
20020;SDS011;10171;42.694;23.318;2023-07-31T14:40:06;7.03;;;4.72;;
20020;SDS011;10171;42.694;23.318;2023-07-31T14:42:33;5.15;;;4.72;;